createdAt,value
2019-05-29T00:02:12.094Z,3.43
2019-05-29T00:04:40.721Z,5.53
2019-05-29T00:07:28.726Z,5.07
2019-05-29T00:09:57.352Z,4.00
2019-05-29T00:12:26.025Z,5.97
2019-05-29T00:14:54.594Z,3.03
2019-05-29T00:17:23.265Z,2.70
2019-05-29T00:19:51.896Z,3.30
2019-05-29T00:22:20.490Z,5.57
2019-05-29T00:24:49.128Z,2.87
2019-05-29T00:27:17.872Z,3.53
2019-05-29T00:29:48.201Z,3.90
2019-05-29T00:32:17.211Z,2.73
2019-05-29T00:34:57.706Z,3.93
2019-05-29T00:37:26.381Z,6.50
2019-05-29T00:39:55.086Z,7.70
2019-05-29T00:42:23.826Z,5.97
2019-05-29T00:44:52.537Z,6.47
2019-05-29T00:47:21.200Z,8.73
2019-05-29T00:50:09.894Z,10.17
2019-05-29T00:52:38.641Z,7.93
2019-05-29T00:55:08.699Z,8.97
2019-05-29T00:57:37.511Z,9.43
2019-05-29T01:00:07.014Z,10.10
2019-05-29T01:02:35.621Z,10.17
2019-05-29T01:05:06.421Z,10.83
2019-05-29T01:07:54.429Z,9.90
2019-05-29T01:10:23.230Z,8.70
2019-05-29T01:12:51.870Z,9.40
2019-05-29T01:15:21.508Z,10.53
2019-05-29T01:17:50.228Z,9.60
2019-05-29T01:20:22.037Z,8.67
2019-05-29T01:22:50.764Z,10.27
2019-05-29T01:25:20.520Z,9.47
2019-05-29T01:27:49.214Z,8.87
2019-05-29T01:30:19.243Z,8.07
2019-05-29T01:32:48.028Z,9.57
2019-05-29T01:35:17.843Z,8.50
2019-05-29T01:37:46.448Z,9.43
2019-05-29T01:40:22.114Z,8.17
2019-05-29T01:42:49.232Z,9.10
2019-05-29T01:45:17.384Z,9.50
2019-05-29T01:47:46.185Z,9.03
2019-05-29T01:50:34.196Z,8.97
2019-05-29T01:53:02.793Z,8.63
2019-05-29T01:55:50.757Z,9.07
2019-05-29T01:58:20.468Z,9.80
2019-05-29T02:00:49.241Z,9.20
2019-05-29T02:03:17.987Z,8.27
2019-05-29T02:05:48.085Z,8.90
2019-05-29T02:08:18.213Z,8.67
2019-05-29T02:10:46.849Z,8.83
2019-05-29T02:13:15.436Z,8.90
2019-05-29T02:15:44.072Z,8.50
2019-05-29T02:18:14.214Z,11.57
2019-05-29T02:20:42.764Z,8.40
2019-05-29T02:23:11.438Z,9.60
2019-05-29T02:25:39.993Z,10.43
2019-05-29T02:28:08.629Z,9.43
2019-05-29T02:30:37.225Z,10.97
2019-05-29T02:33:05.870Z,11.27
2019-05-29T02:35:34.451Z,9.00
2019-05-29T02:38:03.145Z,8.87
2019-05-29T02:40:31.745Z,10.53
2019-05-29T02:43:00.380Z,10.47
2019-05-29T02:45:50.904Z,9.00
2019-05-29T02:47:59.408Z,8.27
2019-05-29T02:50:29.328Z,8.40
2019-05-29T02:52:58.344Z,7.03
2019-05-29T02:55:28.461Z,9.13
2019-05-29T02:57:57.645Z,8.10
2019-05-29T03:00:53.283Z,7.70
2019-05-29T03:03:23.863Z,6.07
2019-05-29T03:05:54.823Z,6.07
2019-05-29T03:08:24.717Z,6.37
2019-05-29T03:10:53.905Z,5.47
2019-05-29T03:13:23.097Z,6.97
2019-05-29T03:16:08.479Z,6.13
2019-05-29T03:18:23.912Z,8.13
2019-05-29T03:20:52.499Z,8.03
2019-05-29T03:23:24.080Z,8.20
2019-05-29T03:25:53.021Z,7.70
2019-05-29T03:28:21.571Z,6.60
2019-05-29T03:30:52.051Z,7.37
2019-05-29T03:33:22.085Z,7.37
2019-05-29T03:35:50.667Z,8.97
2019-05-29T03:38:19.667Z,7.07
2019-05-29T03:40:50.274Z,7.00
2019-05-29T03:43:18.913Z,8.23
2019-05-29T03:45:47.987Z,8.40
2019-05-29T03:48:16.551Z,10.20
2019-05-29T03:50:45.227Z,7.23
2019-05-29T03:53:13.859Z,5.93
2019-05-29T03:55:42.697Z,7.70
2019-05-29T03:58:11.326Z,6.73
2019-05-29T04:00:45.958Z,8.27
2019-05-29T04:03:10.338Z,8.83
2019-05-29T04:05:39.007Z,6.30
2019-05-29T04:08:07.706Z,10.20
2019-05-29T04:10:39.286Z,9.83
2019-05-29T04:13:07.651Z,10.90
2019-05-29T04:15:38.046Z,9.37
2019-05-29T04:18:07.100Z,8.70
2019-05-29T04:20:38.872Z,10.23
2019-05-29T04:23:08.374Z,8.43
2019-05-29T04:25:42.337Z,14.80
2019-05-29T04:28:08.476Z,9.13
2019-05-29T04:30:38.640Z,8.70
2019-05-29T04:33:07.498Z,8.03
2019-05-29T04:35:36.790Z,8.83
2019-05-29T04:38:05.857Z,7.93
2019-05-29T04:40:35.035Z,7.97
2019-05-29T04:43:04.305Z,9.47
2019-05-29T04:45:33.413Z,10.17
2019-05-29T04:48:03.332Z,7.83
2019-05-29T04:50:33.385Z,8.93
2019-05-29T04:53:02.213Z,8.07
2019-05-29T04:55:30.952Z,10.07
2019-05-29T04:57:59.518Z,10.43
2019-05-29T05:00:29.029Z,8.63
2019-05-29T05:02:57.813Z,8.83
2019-05-29T05:05:26.492Z,9.20
2019-05-29T05:07:55.063Z,8.43
2019-05-29T05:10:35.656Z,9.23
2019-05-29T05:13:04.791Z,9.53
2019-05-29T05:15:35.904Z,8.10
2019-05-29T05:18:06.641Z,9.17
2019-05-29T05:20:36.242Z,8.53
2019-05-29T05:23:05.553Z,10.13
2019-05-29T05:25:34.489Z,8.00
2019-05-29T05:28:03.794Z,10.50
2019-05-29T05:30:32.490Z,6.60
2019-05-29T05:33:01.117Z,10.07
2019-05-29T05:35:30.757Z,7.80
2019-05-29T05:37:59.446Z,9.73
2019-05-29T05:40:28.193Z,10.70
2019-05-29T05:42:59.173Z,11.33
2019-05-29T05:45:28.047Z,6.70
2019-05-29T05:47:58.026Z,10.03
2019-05-29T05:50:29.592Z,8.03
2019-05-29T05:53:03.407Z,6.93
2019-05-29T05:55:33.443Z,7.90
2019-05-29T05:58:05.351Z,7.57
2019-05-29T06:00:57.636Z,8.20
2019-05-29T06:03:26.505Z,8.27
2019-05-29T06:05:55.109Z,5.37
2019-05-29T06:08:23.734Z,6.97
2019-05-29T06:10:52.363Z,7.93
2019-05-29T06:13:21.001Z,8.63
2019-05-29T06:15:49.775Z,7.77
2019-05-29T06:18:21.958Z,5.40
2019-05-29T06:20:53.025Z,6.63
2019-05-29T06:23:22.213Z,5.10
2019-05-29T06:25:50.805Z,6.70
2019-05-29T06:28:20.059Z,7.30
2019-05-29T06:30:48.759Z,8.93
2019-05-29T06:33:17.807Z,5.47
2019-05-29T06:35:46.461Z,4.93
2019-05-29T06:38:15.085Z,6.23
2019-05-29T06:40:46.276Z,7.70
2019-05-29T06:43:25.625Z,4.93
2019-05-29T06:45:55.445Z,6.67
2019-05-29T06:48:41.427Z,5.80
2019-05-29T06:51:15.461Z,5.87
2019-05-29T06:53:44.275Z,5.70
2019-05-29T06:56:13.185Z,6.10
2019-05-29T06:58:42.229Z,5.17
2019-05-29T07:01:11.187Z,8.23
2019-05-29T07:03:39.819Z,5.07
2019-05-29T07:06:08.505Z,6.03
2019-05-29T07:08:39.982Z,6.80
2019-05-29T07:11:07.472Z,5.90
2019-05-29T07:13:38.375Z,5.63
2019-05-29T07:16:06.392Z,7.10
2019-05-29T07:18:36.443Z,4.93
2019-05-29T07:21:05.285Z,4.87
2019-05-29T07:23:38.801Z,11.43
2019-05-29T07:26:31.050Z,6.27
2019-05-29T07:29:07.906Z,5.53
2019-05-29T07:31:31.586Z,5.77
2019-05-29T07:34:00.224Z,7.03
2019-05-29T07:36:28.839Z,4.57
2019-05-29T07:39:03.321Z,5.57
2019-05-29T07:41:29.042Z,7.73
2019-05-29T07:43:57.681Z,7.13
2019-05-29T07:46:26.244Z,6.43
2019-05-29T07:48:54.919Z,8.67
2019-05-29T07:51:45.050Z,7.00
2019-05-29T07:54:14.217Z,8.70
2019-05-29T07:56:42.886Z,5.97
2019-05-29T07:59:13.284Z,5.80
2019-05-29T08:01:42.789Z,5.50
2019-05-29T08:04:11.504Z,6.33
2019-05-29T08:06:47.592Z,10.70
2019-05-29T08:09:10.521Z,6.03
2019-05-29T08:11:39.512Z,4.83
2019-05-29T08:14:08.247Z,8.20
2019-05-29T08:16:36.949Z,7.33
2019-05-29T08:19:10.953Z,7.70
2019-05-29T08:21:59.978Z,5.73
2019-05-29T08:24:28.721Z,7.00
2019-05-29T08:26:57.300Z,6.63
2019-05-29T08:29:45.305Z,4.03
2019-05-29T08:32:13.932Z,5.30
2019-05-29T08:34:43.071Z,6.40
2019-05-29T08:37:11.732Z,7.67
2019-05-29T08:39:41.174Z,7.40
2019-05-29T08:42:22.783Z,3.60
2019-05-29T08:44:41.681Z,5.00
2019-05-29T08:47:11.144Z,4.57
2019-05-29T08:49:41.686Z,5.37
2019-05-29T08:52:12.194Z,6.00
2019-05-29T08:54:41.955Z,5.00
2019-05-29T08:57:10.681Z,3.57
2019-05-29T08:59:39.310Z,4.20
2019-05-29T09:02:07.988Z,5.37
2019-05-29T09:04:36.598Z,6.80
2019-05-29T09:07:05.226Z,7.37
2019-05-29T09:09:33.957Z,3.63
2019-05-29T09:12:02.541Z,5.37
2019-05-29T09:14:32.466Z,4.67
2019-05-29T09:17:01.230Z,5.97
2019-05-29T09:19:30.132Z,6.00
2019-05-29T09:21:58.778Z,5.47
2019-05-29T09:24:27.518Z,4.50
2019-05-29T09:26:56.580Z,5.63
2019-05-29T09:29:29.739Z,3.67
2019-05-29T09:32:01.687Z,5.20
2019-05-29T09:37:09.960Z,5.60
2019-05-29T09:39:40.570Z,3.97
2019-05-29T09:42:09.249Z,4.57
2019-05-29T09:44:39.891Z,4.83
2019-05-29T09:47:08.573Z,6.63
2019-05-29T09:49:37.264Z,5.83
2019-05-29T09:52:06.011Z,8.93
2019-05-29T09:54:37.821Z,6.13
2019-05-29T09:57:06.659Z,9.10
2019-05-29T10:00:08.236Z,5.53
2019-05-29T10:02:36.797Z,10.07
2019-05-29T10:05:07.376Z,4.23
2019-05-29T10:07:36.314Z,7.43
2019-05-29T10:10:07.958Z,6.80
2019-05-29T10:12:36.628Z,8.60
2019-05-29T10:15:07.655Z,4.13
2019-05-29T10:17:36.746Z,2.73
2019-05-29T10:20:26.170Z,5.47
2019-05-29T10:22:55.657Z,8.77
2019-05-29T10:25:25.051Z,3.93
2019-05-29T10:27:53.751Z,5.40
2019-05-29T10:30:23.137Z,5.63
2019-05-29T10:32:52.955Z,3.77
2019-05-29T10:35:21.734Z,4.87
2019-05-29T10:38:12.723Z,3.87
2019-05-29T10:40:45.635Z,5.23
2019-05-29T10:43:11.738Z,5.83
2019-05-29T10:45:40.467Z,3.47
2019-05-29T10:48:09.574Z,3.40
2019-05-29T10:50:38.513Z,4.60
2019-05-29T10:53:07.178Z,3.43
2019-05-29T10:55:35.978Z,6.20
2019-05-29T10:58:04.721Z,3.87
2019-05-29T11:00:33.425Z,3.37
2019-05-29T11:03:02.089Z,4.40
2019-05-29T11:05:32.180Z,3.40
2019-05-29T11:08:00.796Z,1.20
2019-05-29T11:10:30.017Z,4.87
2019-05-29T11:12:58.690Z,3.97
2019-05-29T11:15:27.325Z,2.30
2019-05-29T11:17:57.421Z,3.60
2019-05-29T11:20:38.707Z,2.50
2019-05-29T11:23:07.439Z,2.47
2019-05-29T11:25:37.933Z,4.17
2019-05-29T11:28:06.674Z,5.23
2019-05-29T11:30:35.235Z,3.70
2019-05-29T11:33:03.895Z,3.13
2019-05-29T11:35:32.523Z,4.97
2019-05-29T11:38:01.192Z,2.30
2019-05-29T11:40:30.519Z,2.70
2019-05-29T11:42:59.326Z,3.43
2019-05-29T11:45:27.956Z,3.00
2019-05-29T11:47:58.581Z,3.17
2019-05-29T11:50:26.997Z,2.50
2019-05-29T11:52:56.443Z,4.03
2019-05-29T11:55:25.175Z,1.83
2019-05-29T11:57:53.916Z,5.33
2019-05-29T12:00:22.822Z,4.20
2019-05-29T12:02:51.774Z,5.30
2019-05-29T12:05:21.157Z,2.63
2019-05-29T12:07:51.537Z,2.53
2019-05-29T12:10:26.570Z,2.53
2019-05-29T12:12:57.574Z,4.63
2019-05-29T12:15:27.171Z,5.30
2019-05-29T12:18:18.360Z,4.40
2019-05-29T12:20:28.977Z,5.23
2019-05-29T12:23:18.827Z,2.33
2019-05-29T12:28:19.146Z,3.67
2019-05-29T12:31:10.622Z,3.27
2019-05-29T12:33:39.666Z,2.13
2019-05-29T12:36:09.057Z,3.83
2019-05-29T12:38:59.621Z,2.43
2019-05-29T12:41:29.872Z,2.80
2019-05-29T12:43:59.990Z,2.60
2019-05-29T12:46:31.069Z,3.97
2019-05-29T12:49:02.059Z,2.23
2019-05-29T12:51:32.514Z,3.43
2019-05-29T12:54:02.394Z,1.80
2019-05-29T12:56:34.716Z,2.70
2019-05-29T12:59:04.773Z,3.43
2019-05-29T13:01:38.897Z,1.10
2019-05-29T13:04:10.053Z,2.17
2019-05-29T13:06:38.691Z,4.37
2019-05-29T13:09:09.016Z,2.43
2019-05-29T13:11:39.310Z,2.73
2019-05-29T13:14:08.017Z,2.23
2019-05-29T13:16:39.433Z,2.23
2019-05-29T13:19:09.366Z,2.40
2019-05-29T13:21:37.978Z,2.60
2019-05-29T13:24:11.265Z,2.30
2019-05-29T13:26:37.044Z,2.23
2019-05-29T13:29:06.165Z,3.87
2019-05-29T13:31:34.941Z,1.90
2019-05-29T13:34:04.422Z,2.37
2019-05-29T13:36:33.140Z,1.37
2019-05-29T13:39:02.386Z,4.80
2019-05-29T13:41:31.155Z,2.73
2019-05-29T13:44:00.504Z,4.17
2019-05-29T13:46:29.558Z,3.33
2019-05-29T13:48:58.885Z,2.30
2019-05-29T13:51:28.054Z,2.00
2019-05-29T13:54:03.744Z,1.53
2019-05-29T13:56:27.009Z,3.03
2019-05-29T13:58:55.593Z,1.57
2019-05-29T14:01:24.234Z,4.30
2019-05-29T14:03:52.961Z,3.27
2019-05-29T14:06:21.665Z,2.83
2019-05-29T14:08:50.330Z,2.07
2019-05-29T14:11:19.026Z,1.67
2019-05-29T14:13:47.720Z,3.00
2019-05-29T14:16:16.339Z,2.77
2019-05-29T14:18:45.028Z,2.20
2019-05-29T14:21:13.671Z,3.73
2019-05-29T14:23:42.242Z,4.10
2019-05-29T14:26:10.856Z,2.03
2019-05-29T14:28:39.714Z,2.10
2019-05-29T14:31:08.511Z,2.03
2019-05-29T14:33:37.089Z,2.73
2019-05-29T14:36:06.043Z,3.30
2019-05-29T14:38:36.033Z,2.43
2019-05-29T14:41:05.716Z,2.40
2019-05-29T14:43:34.366Z,2.83
2019-05-29T14:46:03.941Z,2.93
2019-05-29T14:48:32.637Z,4.53
2019-05-29T14:51:03.172Z,2.73
2019-05-29T14:53:31.446Z,2.60
2019-05-29T14:56:00.033Z,2.63
2019-05-29T14:58:28.665Z,1.87
2019-05-29T15:00:57.384Z,3.30
2019-05-29T15:03:26.014Z,2.67
2019-05-29T15:05:54.696Z,1.67
2019-05-29T15:08:23.247Z,1.13
2019-05-29T15:10:51.973Z,1.77
2019-05-29T15:13:20.605Z,2.37
2019-05-29T15:15:49.198Z,1.37
2019-05-29T15:18:44.796Z,1.60
2019-05-29T15:21:13.393Z,1.53
2019-05-29T15:23:42.136Z,3.40
2019-05-29T15:26:11.680Z,0.83
2019-05-29T15:28:40.291Z,1.00
2019-05-29T15:31:10.326Z,2.10
2019-05-29T15:33:39.081Z,1.60
2019-05-29T15:36:08.652Z,2.30
2019-05-29T15:38:37.387Z,2.70
2019-05-29T15:41:06.650Z,2.03
2019-05-29T15:43:35.205Z,1.83
2019-05-29T15:46:04.060Z,4.23
2019-05-29T15:48:32.685Z,1.57
2019-05-29T15:51:01.281Z,1.40
2019-05-29T15:53:29.841Z,1.97
2019-05-29T15:56:16.450Z,2.17
2019-05-29T15:58:28.793Z,5.13
2019-05-29T16:00:57.379Z,2.20
2019-05-29T16:03:26.073Z,3.50
2019-05-29T16:05:54.733Z,4.73
2019-05-29T16:08:23.370Z,3.43
2019-05-29T16:10:52.205Z,3.37
2019-05-29T16:13:20.765Z,3.00
2019-05-29T16:15:49.503Z,1.10
2019-05-29T16:18:26.329Z,1.10
2019-05-29T16:20:48.463Z,3.07
2019-05-29T16:23:30.755Z,2.10
2019-05-29T16:25:47.264Z,1.77
2019-05-29T16:28:15.829Z,2.90
2019-05-29T16:30:44.425Z,2.23
2019-05-29T16:33:13.053Z,1.67
2019-05-29T16:35:41.843Z,3.33
2019-05-29T16:38:11.343Z,2.63
2019-05-29T16:40:41.692Z,4.53
2019-05-29T16:43:10.241Z,2.93
2019-05-29T16:45:38.836Z,1.43
2019-05-29T16:48:07.529Z,2.57
2019-05-29T16:50:36.197Z,5.10
2019-05-29T16:53:04.909Z,3.73
2019-05-29T16:55:33.640Z,2.30
2019-05-29T16:58:02.338Z,4.13
2019-05-29T17:00:31.057Z,2.53
2019-05-29T17:02:59.627Z,4.30
2019-05-29T17:05:47.644Z,2.17
2019-05-29T17:08:16.349Z,3.93
2019-05-29T17:10:45.009Z,4.00
2019-05-29T17:13:14.666Z,1.57
2019-05-29T17:15:43.362Z,2.77
2019-05-29T17:18:11.927Z,4.00
2019-05-29T17:20:59.924Z,2.17
2019-05-29T17:23:28.633Z,1.87
2019-05-29T17:26:10.370Z,6.47
2019-05-29T17:28:30.170Z,2.30
2019-05-29T17:31:02.132Z,3.07
2019-05-29T17:33:29.471Z,1.50
2019-05-29T17:35:58.061Z,2.93
2019-05-29T17:38:26.658Z,1.83
2019-05-29T17:40:55.329Z,2.27
2019-05-29T17:43:28.067Z,1.87
2019-05-29T17:45:54.360Z,2.20
2019-05-29T17:48:23.874Z,2.97
2019-05-29T17:50:52.586Z,2.00
2019-05-29T17:53:22.420Z,5.13
2019-05-29T17:55:51.125Z,5.67
2019-05-29T17:58:40.802Z,3.80
2019-05-29T18:01:09.591Z,5.17
2019-05-29T18:03:38.221Z,3.83
2019-05-29T18:06:07.022Z,3.00
2019-05-29T18:08:35.684Z,2.80
2019-05-29T18:11:04.485Z,3.93
2019-05-29T18:13:33.161Z,2.70
2019-05-29T18:16:01.724Z,3.40
2019-05-29T18:18:30.315Z,3.27
2019-05-29T18:20:58.866Z,3.83
2019-05-29T18:23:28.203Z,3.00
2019-05-29T18:25:57.072Z,2.23
2019-05-29T18:28:26.117Z,3.73
2019-05-29T18:30:54.925Z,4.30
2019-05-29T18:33:23.662Z,2.70
2019-05-29T18:35:57.985Z,2.60
2019-05-29T18:38:26.797Z,2.10
2019-05-29T18:40:55.341Z,2.87
2019-05-29T18:43:24.586Z,3.60
2019-05-29T18:45:53.193Z,2.33
2019-05-29T18:48:23.156Z,3.03
2019-05-29T18:50:51.887Z,1.80
2019-05-29T18:53:20.780Z,3.20
2019-05-29T18:55:49.406Z,2.53
2019-05-29T18:58:18.063Z,2.97
2019-05-29T19:00:46.699Z,3.13
2019-05-29T19:03:15.358Z,1.80
2019-05-29T19:05:44.054Z,3.80
2019-05-29T19:08:12.717Z,3.43
2019-05-29T19:10:41.413Z,2.23
2019-05-29T19:13:10.148Z,2.60
2019-05-29T19:15:38.772Z,4.97
2019-05-29T19:18:07.505Z,3.13
2019-05-29T19:20:36.135Z,2.87
2019-05-29T19:23:04.897Z,3.07
2019-05-29T19:25:33.465Z,4.83
2019-05-29T19:28:02.137Z,2.90
2019-05-29T19:30:30.970Z,1.97
2019-05-29T19:32:59.657Z,1.93
2019-05-29T19:35:29.501Z,3.00
2019-05-29T19:37:58.217Z,2.93
2019-05-29T19:40:28.045Z,3.07
2019-05-29T19:42:56.735Z,1.70
2019-05-29T19:45:26.571Z,4.87
2019-05-29T19:47:55.261Z,3.33
2019-05-29T19:50:24.673Z,2.17
2019-05-29T19:52:53.366Z,6.00
2019-05-29T19:55:22.066Z,3.30
2019-05-29T19:57:56.317Z,4.47
2019-05-29T20:00:21.348Z,3.47
2019-05-29T20:02:50.073Z,3.07
2019-05-29T20:05:18.771Z,7.53
2019-05-29T20:07:47.433Z,2.63
2019-05-29T20:10:16.140Z,2.57
2019-05-29T20:12:44.856Z,3.10
2019-05-29T20:15:13.843Z,2.90
2019-05-29T20:17:42.542Z,2.70
2019-05-29T20:20:11.569Z,2.53
2019-05-29T20:22:40.133Z,3.33
2019-05-29T20:25:13.534Z,2.60
2019-05-29T20:27:42.398Z,2.63
2019-05-29T20:30:16.574Z,4.23
2019-05-29T20:32:45.589Z,5.03
2019-05-29T20:35:15.114Z,4.03
2019-05-29T20:37:44.246Z,3.70
2019-05-29T20:40:14.168Z,5.60
2019-05-29T20:42:42.868Z,2.73
2019-05-29T20:45:12.600Z,5.00
2019-05-29T20:47:42.090Z,3.10
2019-05-29T20:50:11.489Z,3.13
2019-05-29T20:52:41.344Z,5.97
2019-05-29T20:55:29.513Z,3.63
2019-05-29T20:57:58.453Z,2.50
2019-05-29T21:00:27.212Z,2.87
2019-05-29T21:02:55.765Z,3.17
2019-05-29T21:05:43.770Z,2.10
2019-05-29T21:08:12.341Z,3.63
2019-05-29T21:10:42.055Z,4.17
2019-05-29T21:13:10.977Z,3.10
2019-05-29T21:15:58.975Z,4.63
2019-05-29T21:18:27.533Z,4.77
2019-05-29T21:20:56.368Z,2.43
2019-05-29T21:23:25.073Z,5.63
2019-05-29T21:25:53.734Z,3.13
2019-05-29T21:28:22.365Z,3.67
2019-05-29T21:30:51.041Z,3.93
2019-05-29T21:33:19.907Z,8.77
2019-05-29T21:35:48.661Z,1.80
2019-05-29T21:38:36.629Z,4.87
2019-05-29T21:41:05.759Z,2.37
2019-05-29T21:43:34.399Z,7.07
2019-05-29T21:46:02.989Z,5.60
2019-05-29T21:48:31.699Z,3.77
2019-05-29T21:51:00.282Z,3.47
2019-05-29T21:53:28.844Z,3.37
2019-05-29T21:55:58.970Z,2.13
2019-05-29T21:58:27.603Z,3.93
2019-05-29T22:01:15.658Z,3.70
2019-05-29T22:03:44.525Z,2.67
2019-05-29T22:06:13.420Z,5.60
2019-05-29T22:08:42.803Z,2.90
2019-05-29T22:11:11.520Z,5.40
2019-05-29T22:13:40.174Z,3.17
2019-05-29T22:16:08.901Z,4.43
2019-05-29T22:18:37.534Z,3.30
2019-05-29T22:21:06.924Z,5.17
2019-05-29T22:23:35.536Z,3.23
2019-05-29T22:26:04.274Z,2.83
2019-05-29T22:28:34.367Z,5.30
2019-05-29T22:31:03.029Z,4.60
2019-05-29T22:33:31.741Z,5.80
2019-05-29T22:36:01.605Z,5.60
2019-05-29T22:38:49.736Z,5.47
2019-05-29T22:41:18.505Z,8.47
2019-05-29T22:43:48.672Z,4.37
2019-05-29T22:46:36.669Z,3.37
2019-05-29T22:49:05.373Z,3.83
2019-05-29T22:51:34.168Z,7.60
2019-05-29T22:54:02.880Z,4.20
2019-05-29T22:56:31.487Z,2.30
2019-05-29T22:59:00.182Z,4.57
2019-05-29T23:01:30.336Z,3.00
2019-05-29T23:04:00.223Z,3.27
2019-05-29T23:06:29.001Z,7.07
2019-05-29T23:08:58.495Z,5.90
2019-05-29T23:11:27.269Z,4.23
2019-05-29T23:13:58.334Z,1.90
2019-05-29T23:16:28.497Z,4.70
2019-05-29T23:18:58.498Z,2.60
2019-05-29T23:21:27.193Z,2.47
2019-05-29T23:23:55.755Z,2.80
2019-05-29T23:26:24.489Z,4.47
2019-05-29T23:28:54.762Z,3.67
2019-05-29T23:31:23.617Z,4.23
2019-05-29T23:33:52.735Z,2.30
2019-05-29T23:36:21.551Z,2.60
2019-05-29T23:38:50.254Z,3.90
2019-05-29T23:41:18.998Z,3.37
2019-05-29T23:43:47.795Z,5.23
2019-05-29T23:46:16.400Z,6.10
2019-05-29T23:48:44.962Z,2.63
2019-05-29T23:51:15.333Z,2.37
2019-05-29T23:53:43.925Z,4.00
2019-05-29T23:56:12.560Z,3.10
2019-05-29T23:59:00.562Z,6.20
